Time;durP1;ratioP1;P1;durP2;ratioP2;P2;SDS_P1;SDS_P2;PMS_P1;PMS_P2;Temp;Humidity;BMP_temperature;BMP_pressure;BME280_temperature;BME280_humidity;BME280_pressure;Samples;Min_cycle;Max_cycle;Signal;HPM_P1;HPM_P2
2022/11/23 00:01:37;;;;;;;2.07;0.60;;;26.30;91.20;;;;;;5091414;28;20704;-66
2022/11/23 00:04:11;;;;;;;1.60;0.40;;;25.80;90.50;;;;;;5075629;28;20289;-66
2022/11/23 00:06:40;;;;;;;2.60;0.50;;;25.70;92.50;;;;;;5075672;28;20176;-67
2022/11/23 00:09:09;;;;;;;1.27;0.40;;;26.20;92.50;;;;;;5075767;28;20233;-67
2022/11/23 00:11:36;;;;;;;1.07;0.63;;;25.50;89.00;;;;;;5075515;28;20176;-68
2022/11/23 00:14:04;;;;;;;3.80;0.60;;;25.40;91.20;;;;;;5075611;28;20239;-67
2022/11/23 00:16:31;;;;;;;2.00;0.83;;;25.80;90.00;;;;;;5075461;28;20179;-66
2022/11/23 00:19:00;;;;;;;1.47;0.60;;;26.50;85.50;;;;;;5075467;28;20726;-66
2022/11/23 00:21:30;;;;;;;1.53;0.60;;;26.50;88.00;;;;;;5075572;28;20182;-66
2022/11/23 00:23:58;;;;;;;0.83;0.50;;;26.40;77.20;;;;;;5075233;28;20268;-66
2022/11/23 00:26:26;;;;;;;1.53;0.57;;;26.60;83.20;;;;;;5074133;28;20532;-67
2022/11/23 00:28:53;;;;;;;1.57;0.40;;;27.10;87.10;;;;;;5091069;28;20179;-67
2022/11/23 00:31:21;;;;;;;7.40;0.70;;;27.30;75.20;;;;;;5075011;28;20211;-69
2022/11/23 00:33:51;;;;;;;1.00;0.40;;;27.10;77.70;;;;;;5075263;28;20293;-67
2022/11/23 00:36:19;;;;;;;1.60;0.50;;;26.60;80.20;;;;;;5074996;28;20638;-68
2022/11/23 00:38:48;;;;;;;1.90;0.60;;;26.80;79.50;;;;;;5074787;28;20348;-67
2022/11/23 00:41:23;;;;;;;1.33;0.50;;;26.60;72.10;;;;;;5075066;28;20176;-68
2022/11/23 00:43:51;;;;;;;0.60;0.30;;;26.80;78.70;;;;;;5074976;28;20221;-69
2022/11/23 00:46:21;;;;;;;2.40;0.40;;;26.90;74.90;;;;;;5074736;28;20183;-68
2022/11/23 00:48:51;;;;;;;2.27;0.50;;;26.90;72.80;;;;;;5074907;28;20164;-67
2022/11/23 00:51:21;;;;;;;1.97;0.50;;;27.30;76.10;;;;;;5090236;28;20180;-68
2022/11/23 00:53:51;;;;;;;1.93;0.50;;;27.20;69.60;;;;;;5074792;28;20171;-67
2022/11/23 00:56:18;;;;;;;0.73;0.40;;;26.90;71.40;;;;;;5074808;28;20649;-68
2022/11/23 00:58:50;;;;;;;1.40;0.47;;;27.00;67.20;;;;;;5074589;28;20235;-67
2022/11/23 01:01:19;;;;;;;2.33;0.57;;;27.30;67.50;;;;;;5074999;28;20176;-67
2022/11/23 01:03:50;;;;;;;0.77;0.20;;;27.40;69.80;;;;;;5074142;28;20234;-70
2022/11/23 01:06:20;;;;;;;1.17;0.50;;;27.80;60.10;;;;;;5075141;28;20255;-67
2022/11/23 01:08:53;;;;;;;0.90;0.40;;;28.30;72.30;;;;;;5074413;28;20249;-68
2022/11/23 01:11:21;;;;;;;0.57;0.50;;;28.00;62.50;;;;;;5074285;28;20172;-67
2022/11/23 01:13:49;;;;;;;4.47;0.60;;;27.70;64.10;;;;;;5074003;28;20172;-70
2022/11/23 01:16:20;;;;;;;1.33;0.40;;;27.90;62.80;;;;;;5067966;28;20531;-70
2022/11/23 01:18:47;;;;;;;3.37;0.57;;;28.60;64.70;;;;;;5058744;28;20590;-71
2022/11/23 01:21:14;;;;;;;1.20;0.30;;;27.90;60.60;;;;;;5074852;28;20179;-67
2022/11/23 01:23:42;;;;;;;1.40;0.30;;;28.10;59.20;;;;;;5068604;28;20279;-73
2022/11/23 01:26:11;;;;;;;3.87;0.30;;;28.40;60.40;;;;;;5071290;28;20188;-69
2022/11/23 01:28:40;;;;;;;1.57;0.40;;;28.50;59.80;;;;;;5069286;28;20263;-69
2022/11/23 01:31:14;;;;;;;6.67;0.70;;;28.40;56.20;;;;;;5063796;28;20191;-69
2022/11/23 01:33:42;;;;;;;0.87;0.40;;;27.80;57.00;;;;;;5072433;28;20233;-69
2022/11/23 01:36:18;;;;;;;0.50;0.30;;;28.00;60.30;;;;;;5072332;28;20188;-69
2022/11/23 01:38:46;;;;;;;1.00;0.40;;;28.30;61.30;;;;;;5071594;28;20183;-68
2022/11/23 01:41:35;;;;;;;1.10;0.40;;;28.80;54.70;;;;;;5072108;28;20188;-69
2022/11/23 01:44:26;;;;;;;2.20;0.50;;;28.40;54.90;;;;;;5072236;28;20269;-70
2022/11/23 01:46:56;;;;;;;1.27;0.43;;;28.60;57.20;;;;;;5032144;28;20246;-70
2022/11/23 01:49:25;;;;;;;0.70;0.60;;;28.80;63.90;;;;;;5040563;28;20183;-73
2022/11/23 01:51:56;;;;;;;0.93;0.40;;;29.00;52.80;;;;;;5072091;28;20184;-69
2022/11/23 01:54:39;;;;;;;1.67;0.50;;;28.90;60.60;;;;;;5071186;28;20540;-70
2022/11/23 01:57:17;;;;;;;1.23;0.40;;;28.60;53.10;;;;;;5087825;28;20248;-73
2022/11/23 01:59:46;;;;;;;1.77;0.60;;;28.40;59.80;;;;;;5071464;28;20207;-70
2022/11/23 02:02:15;;;;;;;1.20;0.47;;;28.40;52.00;;;;;;5072307;28;20719;-72
2022/11/23 02:04:45;;;;;;;1.83;0.50;;;29.10;53.30;;;;;;5071618;28;20320;-70
2022/11/23 02:07:16;;;;;;;1.10;0.37;;;29.50;52.60;;;;;;5087224;28;20779;-70
2022/11/23 02:09:44;;;;;;;0.60;0.40;;;29.00;53.30;;;;;;5061084;28;20246;-71
2022/11/23 02:12:12;;;;;;;0.53;0.33;;;28.80;52.30;;;;;;5053333;28;20183;-69
2022/11/23 02:14:41;;;;;;;0.60;0.30;;;28.70;52.70;;;;;;5053960;28;20475;-71
2022/11/23 02:17:09;;;;;;;3.40;0.30;;;28.40;60.90;;;;;;5049282;28;20248;-76
2022/11/23 02:20:03;;;;;;;0.80;0.50;;;28.50;53.90;;;;;;5052045;28;20666;-71
2022/11/23 02:22:45;;;;;;;5.93;0.50;;;28.80;56.50;;;;;;5058289;28;20189;-70
2022/11/23 02:25:33;;;;;;;0.43;0.33;;;29.00;60.00;;;;;;5043537;28;20213;-71
2022/11/23 02:28:01;;;;;;;0.87;0.30;;;29.30;56.60;;;;;;5038274;28;20184;-72
2022/11/23 02:30:30;;;;;;;1.30;0.43;;;29.00;52.40;;;;;;5068941;28;20184;-78
2022/11/23 02:32:58;;;;;;;0.80;0.30;;;28.90;56.60;;;;;;5070356;28;20920;-74
2022/11/23 02:35:25;;;;;;;1.33;0.23;;;28.80;52.50;;;;;;5070285;28;20672;-73
2022/11/23 02:37:53;;;;;;;3.10;0.40;;;28.50;52.80;;;;;;5069909;28;20188;-70
2022/11/23 02:40:35;;;;;;;1.00;0.50;;;28.20;52.30;;;;;;5087421;28;20184;-72
2022/11/23 02:43:03;;;;;;;1.77;0.50;;;27.90;54.50;;;;;;5057757;28;20191;-70
2022/11/23 02:45:33;;;;;;;2.53;0.80;;;28.50;54.90;;;;;;5071096;28;20261;-69
2022/11/23 02:48:01;;;;;;;1.70;0.50;;;29.00;57.60;;;;;;5086291;28;20284;-69
2022/11/23 02:50:29;;;;;;;2.43;0.30;;;29.00;51.20;;;;;;5070616;28;20195;-69
2022/11/23 02:52:56;;;;;;;1.57;0.43;;;28.70;49.40;;;;;;5058783;28;20180;-69
2022/11/23 02:55:24;;;;;;;0.20;0.20;;;29.10;52.50;;;;;;5065275;28;20541;-70
2022/11/23 02:57:51;;;;;;;0.83;0.40;;;29.10;50.80;;;;;;5065055;28;20613;-69
2022/11/23 03:00:19;;;;;;;0.90;0.30;;;29.30;52.90;;;;;;5074848;28;20211;-71
2022/11/23 03:02:46;;;;;;;0.50;0.30;;;29.30;49.70;;;;;;5075185;28;20176;-73
2022/11/23 03:05:14;;;;;;;0.80;0.33;;;29.20;54.30;;;;;;5055905;28;20244;-71
2022/11/23 03:07:41;;;;;;;0.97;0.30;;;29.30;52.20;;;;;;5060677;28;20188;-68
2022/11/23 03:10:10;;;;;;;1.97;0.30;;;29.50;51.70;;;;;;5082899;28;20192;-68
2022/11/23 03:12:37;;;;;;;3.07;0.60;;;29.80;53.60;;;;;;5075192;28;20626;-69
2022/11/23 03:15:05;;;;;;;3.33;0.50;;;29.90;49.40;;;;;;5071072;28;20191;-69
2022/11/23 03:17:34;;;;;;;1.45;0.43;;;29.70;48.60;;;;;;5074994;28;20187;-69
2022/11/23 03:20:02;;;;;;;2.33;0.40;;;29.60;46.40;;;;;;5075316;28;20203;-68
2022/11/23 03:22:29;;;;;;;1.37;0.37;;;29.60;46.40;;;;;;5090233;28;20213;-68
2022/11/23 03:24:57;;;;;;;0.50;0.20;;;29.90;50.00;;;;;;5074591;28;20215;-69
2022/11/23 03:27:25;;;;;;;0.80;0.30;;;30.10;45.80;;;;;;5074701;28;20660;-70
2022/11/23 03:29:52;;;;;;;1.47;0.30;;;30.20;42.60;;;;;;5074134;28;20720;-71
2022/11/23 03:32:19;;;;;;;0.90;0.30;;;30.20;40.40;;;;;;5090328;28;20188;-69
2022/11/23 03:34:47;;;;;;;1.10;0.40;;;30.20;42.10;;;;;;5090943;28;20279;-69
2022/11/23 03:37:14;;;;;;;1.13;0.37;;;30.50;43.40;;;;;;5073957;28;20558;-70
2022/11/23 03:39:42;;;;;;;1.07;0.30;;;30.20;42.10;;;;;;5074523;28;20293;-70
2022/11/23 03:42:09;;;;;;;0.57;0.20;;;30.10;38.40;;;;;;5090096;28;20179;-70
2022/11/23 03:44:36;;;;;;;0.40;0.30;;;30.30;41.70;;;;;;5063155;28;20204;-70
2022/11/23 03:47:04;;;;;;;0.57;0.30;;;30.20;36.10;;;;;;5054118;28;20180;-70
2022/11/23 03:49:31;;;;;;;0.10;0.10;;;30.10;34.10;;;;;;5075251;28;20221;-70
2022/11/23 03:51:59;;;;;;;1.50;0.40;;;29.80;33.60;;;;;;5075735;28;20176;-68
2022/11/23 03:54:26;;;;;;;0.43;0.20;;;29.60;34.00;;;;;;5075789;28;20221;-70
2022/11/23 03:56:53;;;;;;;0.97;0.30;;;29.70;36.90;;;;;;5075426;28;20211;-69
2022/11/23 03:59:21;;;;;;;2.33;0.37;;;29.80;37.80;;;;;;5074793;28;20184;-70
2022/11/23 04:01:48;;;;;;;0.97;0.20;;;30.10;35.90;;;;;;5081407;28;20215;-68
2022/11/23 04:04:17;;;;;;;0.70;0.27;;;30.40;38.20;;;;;;5075358;28;20317;-68
2022/11/23 04:06:45;;;;;;;0.80;0.37;;;30.50;35.70;;;;;;5075475;28;20699;-68
2022/11/23 04:09:13;;;;;;;1.70;0.20;;;30.30;35.70;;;;;;5075537;28;20175;-68
2022/11/23 04:11:40;;;;;;;0.40;0.20;;;30.40;36.20;;;;;;5075633;28;20172;-67
2022/11/23 04:14:08;;;;;;;1.33;0.40;;;29.90;34.40;;;;;;5075518;28;20255;-67
2022/11/23 04:16:35;;;;;;;0.30;0.20;;;30.20;35.40;;;;;;5075834;28;20183;-66
2022/11/23 04:19:02;;;;;;;0.93;0.40;;;30.20;35.10;;;;;;5075215;28;20172;-67
2022/11/23 04:21:30;;;;;;;7.57;0.50;;;30.40;33.20;;;;;;5075303;28;20232;-67
2022/11/23 04:23:57;;;;;;;2.30;0.20;;;30.40;32.90;;;;;;5090599;28;20180;-67
2022/11/23 04:26:25;;;;;;;4.03;0.30;;;30.60;34.50;;;;;;5075309;28;20226;-67
2022/11/23 04:28:52;;;;;;;0.63;0.23;;;30.60;34.30;;;;;;5075273;28;20168;-68
2022/11/23 04:31:19;;;;;;;1.17;0.30;;;30.40;33.20;;;;;;5075272;28;20236;-71
2022/11/23 04:33:47;;;;;;;1.87;0.20;;;30.10;34.00;;;;;;5075094;28;20183;-69
2022/11/23 04:36:14;;;;;;;0.67;0.10;;;30.10;33.50;;;;;;5090705;28;20183;-70
2022/11/23 04:38:41;;;;;;;1.43;0.50;;;30.60;34.90;;;;;;5074957;28;20172;-72
2022/11/23 04:41:09;;;;;;;1.10;0.47;;;30.50;33.40;;;;;;5075489;28;20179;-70
2022/11/23 04:43:36;;;;;;;1.40;0.30;;;30.50;32.90;;;;;;5075008;28;20180;-69
2022/11/23 04:46:04;;;;;;;0.80;0.37;;;30.40;33.90;;;;;;5074795;28;20222;-71
2022/11/23 04:48:31;;;;;;;1.17;0.40;;;30.70;32.60;;;;;;5074832;28;20165;-72
2022/11/23 04:50:59;;;;;;;3.30;0.40;;;31.00;34.50;;;;;;5074753;28;20185;-71
2022/11/23 04:53:27;;;;;;;0.33;0.20;;;31.10;34.10;;;;;;5074894;28;20203;-73
2022/11/23 04:55:54;;;;;;;1.57;0.30;;;30.90;31.20;;;;;;5074781;28;20648;-74
2022/11/23 04:58:21;;;;;;;2.37;0.30;;;30.40;30.50;;;;;;5074444;28;20237;-71
2022/11/23 05:00:49;;;;;;;0.50;0.30;;;30.20;30.60;;;;;;5074533;28;20183;-68
2022/11/23 05:03:16;;;;;;;0.60;0.33;;;30.20;31.30;;;;;;5074512;28;20179;-67
2022/11/23 05:05:44;;;;;;;3.20;0.30;;;30.50;31.30;;;;;;5074146;28;20276;-68
2022/11/23 05:08:11;;;;;;;3.67;0.40;;;30.60;32.80;;;;;;5074527;28;20168;-68
2022/11/23 05:10:39;;;;;;;0.47;0.30;;;30.50;29.90;;;;;;5074470;28;20182;-68
2022/11/23 05:13:06;;;;;;;5.30;0.47;;;30.50;32.90;;;;;;5073902;28;20182;-67
2022/11/23 05:15:33;;;;;;;1.00;0.30;;;30.10;30.70;;;;;;5074450;28;20183;-67
2022/11/23 05:18:09;;;;;;;0.80;0.30;;;29.70;30.00;;;;;;5074432;28;20640;-68
2022/11/23 05:20:37;;;;;;;1.43;0.30;;;30.00;31.30;;;;;;5074264;28;20262;-68
2022/11/23 05:23:05;;;;;;;2.80;0.47;;;29.80;29.70;;;;;;5074201;28;20229;-68
2022/11/23 05:25:32;;;;;;;2.63;0.40;;;29.80;29.80;;;;;;5074394;28;20211;-68
2022/11/23 05:28:00;;;;;;;2.23;0.40;;;29.60;29.90;;;;;;5074109;28;20226;-66
2022/11/23 05:30:27;;;;;;;4.33;0.50;;;29.80;28.60;;;;;;5074507;28;20168;-68
2022/11/23 05:32:59;;;;;;;1.70;0.33;;;29.50;29.10;;;;;;5073891;28;20218;-67
2022/11/23 05:35:27;;;;;;;1.37;0.43;;;29.30;29.10;;;;;;5074004;28;20533;-68
2022/11/23 05:37:54;;;;;;;0.87;0.50;;;29.20;28.80;;;;;;5073973;28;20255;-66
2022/11/23 05:40:22;;;;;;;1.50;0.30;;;29.30;29.50;;;;;;5074287;28;20618;-70
2022/11/23 05:42:53;;;;;;;1.47;0.20;;;29.30;28.90;;;;;;5073650;28;20172;-69
2022/11/23 05:45:21;;;;;;;1.63;0.50;;;29.10;29.90;;;;;;5073928;28;20235;-68
2022/11/23 05:47:52;;;;;;;1.70;0.30;;;29.30;30.30;;;;;;5073524;28;20205;-71
2022/11/23 05:50:21;;;;;;;0.93;0.37;;;29.30;29.70;;;;;;5073787;28;20180;-69
2022/11/23 05:52:49;;;;;;;0.63;0.20;;;29.40;30.40;;;;;;5073450;28;20175;-69
2022/11/23 05:55:16;;;;;;;1.13;0.40;;;29.50;31.00;;;;;;5073576;28;20176;-72
2022/11/23 05:57:44;;;;;;;0.80;0.33;;;29.50;30.30;;;;;;5073565;28;20199;-68
2022/11/23 06:00:11;;;;;;;1.00;0.30;;;29.40;29.90;;;;;;5073271;28;20260;-68
2022/11/23 06:02:39;;;;;;;2.40;0.27;;;29.30;29.60;;;;;;5073432;28;20298;-69
2022/11/23 06:05:07;;;;;;;0.50;0.27;;;29.10;30.20;;;;;;5073037;28;20319;-72
2022/11/23 06:07:35;;;;;;;1.50;0.33;;;29.00;30.50;;;;;;5073335;28;20176;-69
2022/11/23 06:10:04;;;;;;;2.30;0.67;;;28.80;30.80;;;;;;5073318;28;20574;-69
2022/11/23 06:12:32;;;;;;;0.83;0.40;;;28.90;31.50;;;;;;5073240;28;20172;-69
2022/11/23 06:14:59;;;;;;;2.67;0.30;;;29.00;30.80;;;;;;5073424;28;20205;-72
2022/11/23 06:17:26;;;;;;;3.50;0.30;;;28.30;32.20;;;;;;5073161;28;20321;-70
2022/11/23 06:19:54;;;;;;;2.10;0.50;;;28.40;32.80;;;;;;5073172;28;20649;-68
2022/11/23 06:22:21;;;;;;;1.13;0.30;;;28.40;31.50;;;;;;5073050;28;20710;-72
2022/11/23 06:24:49;;;;;;;0.70;0.30;;;28.40;33.00;;;;;;5072539;28;20260;-68
2022/11/23 06:27:16;;;;;;;0.87;0.20;;;28.60;32.60;;;;;;5073476;28;20290;-69
2022/11/23 06:29:44;;;;;;;1.03;0.30;;;28.50;31.20;;;;;;5073684;28;20195;-69
2022/11/23 06:32:11;;;;;;;0.83;0.30;;;28.50;31.80;;;;;;5073417;28;20625;-68
2022/11/23 06:34:38;;;;;;;1.97;0.30;;;28.60;33.50;;;;;;5073173;28;20575;-70
2022/11/23 06:37:06;;;;;;;1.40;0.93;;;28.40;32.40;;;;;;5072983;28;20183;-71
2022/11/23 06:39:33;;;;;;;1.50;0.60;;;28.30;31.80;;;;;;5073032;28;20168;-70
2022/11/23 06:42:00;;;;;;;0.93;0.43;;;28.30;33.10;;;;;;5072837;28;20233;-71
2022/11/23 06:44:28;;;;;;;0.60;0.20;;;28.40;32.80;;;;;;5072981;28;20206;-72
2022/11/23 06:46:55;;;;;;;0.60;0.20;;;28.30;32.40;;;;;;5088112;28;20187;-72
2022/11/23 06:49:24;;;;;;;1.70;0.30;;;28.30;33.30;;;;;;5072850;28;20178;-72
2022/11/23 06:51:52;;;;;;;2.00;0.57;;;28.50;33.10;;;;;;5072660;28;20176;-69
2022/11/23 06:54:19;;;;;;;3.87;0.63;;;28.60;32.30;;;;;;5072844;28;20190;-72
2022/11/23 06:56:47;;;;;;;1.07;0.30;;;28.40;32.00;;;;;;5072762;28;20183;-72
2022/11/23 06:59:14;;;;;;;3.63;0.90;;;28.20;31.10;;;;;;5072691;28;20172;-71
2022/11/23 07:01:42;;;;;;;1.70;0.57;;;28.30;32.10;;;;;;5072751;28;20232;-73
2022/11/23 07:04:09;;;;;;;0.40;0.30;;;28.10;31.80;;;;;;5072351;28;20266;-72
2022/11/23 07:06:40;;;;;;;5.17;0.30;;;28.10;32.60;;;;;;5072777;28;20179;-71
2022/11/23 07:09:08;;;;;;;5.13;1.83;;;28.00;32.90;;;;;;5072898;28;20263;-71
2022/11/23 07:11:35;;;;;;;2.73;0.30;;;27.80;32.70;;;;;;5072734;28;20203;-71
2022/11/23 07:14:03;;;;;;;0.70;0.30;;;27.70;32.80;;;;;;5072835;28;20184;-71
2022/11/23 07:16:30;;;;;;;0.20;0.20;;;27.60;32.30;;;;;;5088065;28;20553;-67
2022/11/23 07:18:58;;;;;;;2.33;0.33;;;27.50;33.20;;;;;;5072498;28;20187;-68
2022/11/23 07:21:25;;;;;;;2.03;0.50;;;27.40;33.60;;;;;;5072576;28;20648;-68
2022/11/23 07:23:53;;;;;;;0.40;0.40;;;27.50;33.30;;;;;;5072670;28;20226;-67
2022/11/23 07:26:20;;;;;;;3.30;0.40;;;27.30;33.40;;;;;;5072844;28;20191;-68
2022/11/23 07:28:48;;;;;;;0.50;0.30;;;27.30;33.70;;;;;;5072731;28;20519;-67
2022/11/23 07:31:15;;;;;;;0.60;0.40;;;27.20;34.60;;;;;;5072616;28;20182;-67
2022/11/23 07:33:46;;;;;;;0.87;0.23;;;27.30;33.60;;;;;;5072410;28;20180;-67
2022/11/23 07:36:13;;;;;;;0.20;0.20;;;27.20;34.90;;;;;;5075186;28;20236;-67
2022/11/23 07:38:41;;;;;;;2.23;0.30;;;27.10;34.70;;;;;;5091602;28;20656;-67
2022/11/23 07:41:08;;;;;;;0.27;0.27;;;27.20;35.80;;;;;;5075947;28;20172;-66
2022/11/23 07:43:36;;;;;;;1.63;0.40;;;27.10;34.50;;;;;;5075764;28;20187;-67
2022/11/23 07:46:03;;;;;;;1.23;0.40;;;27.10;35.70;;;;;;5075911;28;20207;-66
2022/11/23 07:48:31;;;;;;;2.67;0.40;;;26.90;34.70;;;;;;5075892;28;20172;-67
2022/11/23 07:50:58;;;;;;;1.97;0.43;;;26.70;35.40;;;;;;5076016;28;20207;-67
2022/11/23 07:53:26;;;;;;;0.80;0.30;;;26.80;36.10;;;;;;5075837;28;20630;-67
2022/11/23 07:56:00;;;;;;;0.30;0.30;;;26.80;36.00;;;;;;5075747;28;20172;-67
2022/11/23 07:58:27;;;;;;;0.50;0.30;;;27.00;36.70;;;;;;5075627;28;20531;-67
2022/11/23 08:00:55;;;;;;;0.50;0.30;;;27.00;35.40;;;;;;5075844;28;20275;-66
2022/11/23 08:03:22;;;;;;;0.80;0.30;;;26.90;34.60;;;;;;5075646;28;20246;-67
2022/11/23 08:05:49;;;;;;;4.53;0.43;;;26.70;35.60;;;;;;5075502;28;20239;-67
2022/11/23 08:08:17;;;;;;;1.70;0.30;;;26.60;36.30;;;;;;5075557;28;20263;-67
2022/11/23 08:10:44;;;;;;;0.50;0.30;;;26.50;36.40;;;;;;5075670;28;20187;-66
2022/11/23 08:13:12;;;;;;;0.67;0.27;;;26.30;36.30;;;;;;5075479;28;20545;-67
2022/11/23 08:15:39;;;;;;;0.67;0.20;;;26.10;37.10;;;;;;5075563;28;20263;-67
2022/11/23 08:18:07;;;;;;;1.60;0.43;;;26.00;38.00;;;;;;5075600;28;20167;-67
2022/11/23 08:20:34;;;;;;;0.57;0.40;;;25.90;38.80;;;;;;5075447;28;20208;-67
2022/11/23 08:23:01;;;;;;;0.97;0.43;;;25.70;38.50;;;;;;5075167;28;20168;-67
2022/11/23 08:25:29;;;;;;;0.93;0.40;;;25.50;40.20;;;;;;5075107;28;20211;-67
2022/11/23 08:27:59;;;;;;;0.33;0.30;;;25.40;40.60;;;;;;5076095;28;20571;-66
2022/11/23 08:30:27;;;;;;;2.40;0.50;;;25.20;41.00;;;;;;5075370;28;20233;-66
2022/11/23 08:32:55;;;;;;;0.57;0.33;;;25.10;42.20;;;;;;5075243;28;20199;-67
2022/11/23 08:35:22;;;;;;;0.70;0.37;;;25.00;43.80;;;;;;5075171;28;20237;-67
2022/11/23 08:37:50;;;;;;;0.30;0.30;;;24.90;44.30;;;;;;5075081;28;20638;-66
2022/11/23 08:40:17;;;;;;;1.67;0.30;;;24.80;44.90;;;;;;5074298;28;20241;-67
2022/11/23 08:42:46;;;;;;;0.30;0.30;;;24.70;46.90;;;;;;5073941;28;20179;-67
2022/11/23 08:45:13;;;;;;;0.40;0.30;;;24.60;47.30;;;;;;5069344;28;20211;-68
2022/11/23 08:47:41;;;;;;;1.30;0.47;;;24.50;48.60;;;;;;5063475;28;20556;-67
2022/11/23 08:50:09;;;;;;;0.60;0.40;;;24.40;49.90;;;;;;5068741;28;20185;-68
2022/11/23 08:52:36;;;;;;;0.67;0.30;;;24.30;51.40;;;;;;5070149;28;20594;-70
2022/11/23 08:55:04;;;;;;;1.17;0.50;;;24.20;51.90;;;;;;5073419;28;20188;-67
2022/11/23 08:57:31;;;;;;;1.47;0.50;;;24.20;53.20;;;;;;5072043;28;20204;-68
2022/11/23 08:59:59;;;;;;;2.37;0.63;;;24.10;55.30;;;;;;5073436;28;20187;-68
2022/11/23 09:02:26;;;;;;;2.20;0.47;;;24.00;55.70;;;;;;5070883;28;20184;-67
2022/11/23 09:04:54;;;;;;;0.30;0.27;;;24.00;56.00;;;;;;5072897;28;20227;-68
2022/11/23 09:07:21;;;;;;;1.03;0.40;;;23.90;56.90;;;;;;5069183;28;20183;-67
2022/11/23 09:09:49;;;;;;;0.30;0.30;;;23.90;57.30;;;;;;5088259;28;20192;-68
2022/11/23 09:12:16;;;;;;;1.70;0.57;;;23.80;58.00;;;;;;5073322;28;20250;-67
2022/11/23 09:14:44;;;;;;;2.07;0.37;;;23.80;58.40;;;;;;5072738;28;20176;-68
2022/11/23 09:17:11;;;;;;;2.00;0.50;;;23.70;59.70;;;;;;5070702;28;20187;-68
2022/11/23 09:19:38;;;;;;;3.60;0.57;;;23.60;60.50;;;;;;5073082;28;20183;-68
2022/11/23 09:22:06;;;;;;;6.03;0.50;;;23.60;61.20;;;;;;5072966;28;20180;-69
2022/11/23 09:24:33;;;;;;;2.00;0.37;;;23.50;63.30;;;;;;5072437;28;20207;-68
2022/11/23 09:27:00;;;;;;;4.17;0.67;;;23.30;66.00;;;;;;5072824;28;20195;-67
2022/11/23 09:29:28;;;;;;;1.33;0.70;;;23.30;64.20;;;;;;5072317;28;20333;-68
2022/11/23 09:31:55;;;;;;;1.90;0.53;;;23.20;67.50;;;;;;5072269;28;20188;-68
2022/11/23 09:34:23;;;;;;;0.93;0.47;;;23.20;67.80;;;;;;5072443;28;20205;-68
2022/11/23 09:36:50;;;;;;;3.83;0.60;;;23.10;69.80;;;;;;5071819;28;20652;-67
2022/11/23 09:39:17;;;;;;;1.10;0.33;;;23.10;70.60;;;;;;5072545;28;20187;-68
2022/11/23 09:41:57;;;;;;;1.73;0.50;;;23.10;72.70;;;;;;5087854;28;20605;-68
2022/11/23 09:44:51;;;;;;;2.90;0.40;;;23.10;73.50;;;;;;5071812;28;20256;-68
2022/11/23 09:47:53;;;;;;;0.73;0.40;;;23.00;73.90;;;;;;5058190;28;20191;-67
2022/11/23 09:50:29;;;;;;;1.50;0.40;;;23.00;74.60;;;;;;5066595;28;20190;-68
2022/11/23 09:52:59;;;;;;;1.63;0.40;;;22.90;77.60;;;;;;5071965;28;20180;-68
2022/11/23 09:55:39;;;;;;;0.90;0.40;;;22.90;79.10;;;;;;5072243;28;20183;-68
2022/11/23 09:58:12;;;;;;;0.87;0.50;;;22.70;82.40;;;;;;5058652;28;20192;-69
2022/11/23 10:01:03;;;;;;;0.93;0.50;;;22.60;85.20;;;;;;5061241;28;20188;-69
2022/11/23 10:03:40;;;;;;;1.03;0.40;;;22.50;87.00;;;;;;5071760;28;20215;-69
2022/11/23 10:06:25;;;;;;;0.97;0.50;;;22.40;90.00;;;;;;5087395;28;20215;-68
2022/11/23 10:09:11;;;;;;;0.40;0.40;;;22.40;91.20;;;;;;5041562;28;20184;-68
2022/11/23 10:12:06;;;;;;;0.50;0.50;;;22.30;91.80;;;;;;5071997;28;20270;-68
2022/11/23 10:14:57;;;;;;;0.67;0.47;;;22.40;92.50;;;;;;5071961;28;20259;-69
2022/11/23 10:17:51;;;;;;;3.60;0.83;;;22.30;92.30;;;;;;5071785;28;20190;-68
2022/11/23 10:20:55;;;;;;;0.83;0.50;;;22.10;94.30;;;;;;5060542;28;20190;-69
2022/11/23 10:23:29;;;;;;;3.93;0.50;;;22.10;95.70;;;;;;5071729;28;20580;-70
2022/11/23 10:25:57;;;;;;;0.70;0.50;;;22.10;96.60;;;;;;5071658;28;20575;-71
2022/11/23 10:28:24;;;;;;;1.63;0.70;;;22.00;98.50;;;;;;5071229;28;20180;-71
2022/11/23 10:31:02;;;;;;;2.80;0.60;;;22.10;97.30;;;;;;5071910;28;20193;-70
2022/11/23 10:33:37;;;;;;;2.83;0.70;;;22.00;98.00;;;;;;5071624;28;20592;-72
2022/11/23 10:36:05;;;;;;;5.33;0.67;;;22.00;99.90;;;;;;5071338;28;20259;-71
2022/11/23 10:38:33;;;;;;;0.97;0.60;;;21.90;99.90;;;;;;5071098;28;20182;-72
2022/11/23 10:41:04;;;;;;;1.73;0.50;;;21.80;99.90;;;;;;5071605;28;20267;-69
2022/11/23 10:44:03;;;;;;;1.50;0.60;;;21.80;99.90;;;;;;5071319;28;20184;-68
2022/11/23 10:46:38;;;;;;;0.90;0.63;;;21.80;99.90;;;;;;5047956;28;20222;-69
2022/11/23 10:49:18;;;;;;;2.70;0.70;;;21.80;99.90;;;;;;5070960;28;20187;-71
2022/11/23 10:51:57;;;;;;;2.17;0.77;;;21.70;99.90;;;;;;5071156;28;20573;-69
2022/11/23 10:54:42;;;;;;;1.20;0.40;;;21.70;99.90;;;;;;5071431;28;20183;-69
2022/11/23 10:57:28;;;;;;;1.27;0.67;;;21.70;99.90;;;;;;5086713;28;20183;-69
2022/11/23 11:00:01;;;;;;;0.70;0.47;;;21.60;99.90;;;;;;5086742;28;20625;-68
2022/11/23 11:02:37;;;;;;;2.10;0.50;;;21.50;99.90;;;;;;5071101;28;20180;-69
2022/11/23 11:05:15;;;;;;;0.67;0.40;;;21.50;99.90;;;;;;5070820;28;20230;-71
2022/11/23 11:07:43;;;;;;;2.37;0.60;;;21.40;99.90;;;;;;5071123;28;20913;-69
2022/11/23 11:10:32;;;;;;;1.17;0.50;;;21.40;99.90;;;;;;5072849;28;20188;-70
2022/11/23 11:13:00;;;;;;;0.90;0.60;;;21.30;99.90;;;;;;5075166;28;20244;-68
2022/11/23 11:15:28;;;;;;;1.10;0.40;;;21.30;99.90;;;;;;5075323;28;20211;-72
2022/11/23 11:17:58;;;;;;;1.53;0.50;;;21.20;99.90;;;;;;5075350;28;20704;-71
2022/11/23 11:20:32;;;;;;;0.80;0.50;;;21.20;99.90;;;;;;5074692;28;20178;-71
2022/11/23 11:23:15;;;;;;;0.83;0.40;;;21.20;99.90;;;;;;5075313;28;20184;-69
2022/11/23 11:25:44;;;;;;;2.97;0.50;;;21.20;99.90;;;;;;5062770;28;20299;-69
2022/11/23 11:28:29;;;;;;;0.90;0.60;;;21.20;99.90;;;;;;5055998;28;20596;-68
2022/11/23 11:30:56;;;;;;;1.23;0.60;;;21.30;99.90;;;;;;5059285;28;20238;-66
2022/11/23 11:33:41;;;;;;;4.43;0.70;;;21.20;99.90;;;;;;5068214;28;20186;-67
2022/11/23 11:36:13;;;;;;;2.83;0.73;;;21.10;99.90;;;;;;5059074;28;20195;-68
2022/11/23 11:38:46;;;;;;;2.37;0.50;;;21.10;99.90;;;;;;5073602;28;20215;-68
2022/11/23 11:41:18;;;;;;;1.67;0.63;;;21.00;99.90;;;;;;5074167;28;20650;-72
2022/11/23 11:43:49;;;;;;;2.63;0.60;;;21.00;99.90;;;;;;5074698;28;20193;-74
2022/11/23 11:46:45;;;;;;;3.03;0.70;;;21.00;99.90;;;;;;5074807;28;20215;-71
2022/11/23 11:49:17;;;;;;;2.37;0.67;;;20.90;99.90;;;;;;5039855;28;20233;-73
2022/11/23 11:51:54;;;;;;;2.77;0.77;;;20.90;99.90;;;;;;5074371;28;20172;-68
2022/11/23 11:55:02;;;;;;;1.10;0.60;;;20.80;99.90;;;;;;5074062;28;20179;-68
2022/11/23 11:57:41;;;;;;;0.97;0.80;;;20.70;99.90;;;;;;5073995;28;20207;-72
2022/11/23 12:00:16;;;;;;;2.33;0.50;;;20.50;99.90;;;;;;5034958;28;20231;-72
2022/11/23 12:02:57;;;;;;;0.73;0.47;;;20.40;99.90;;;;;;5073236;28;20193;-70
2022/11/23 12:05:32;;;;;;;1.40;0.30;;;20.30;99.90;;;;;;5062781;28;20288;-70
2022/11/23 12:08:36;;;;;;;1.17;0.70;;;20.40;99.90;;;;;;5075175;28;20179;-71
2022/11/23 12:11:05;;;;;;;2.00;0.70;;;20.30;99.90;;;;;;5070563;28;20254;-73
2022/11/23 12:13:36;;;;;;;1.03;0.77;;;20.20;99.90;;;;;;5075725;28;20237;-70
2022/11/23 12:16:25;;;;;;;2.23;0.50;;;20.10;99.90;;;;;;5075360;28;20325;-73
2022/11/23 12:19:13;;;;;;;1.00;0.60;;;20.00;99.90;;;;;;5076198;28;20244;-67
2022/11/23 12:21:55;;;;;;;1.17;0.60;;;19.90;99.90;;;;;;5075562;28;20267;-68
2022/11/23 12:24:55;;;;;;;2.27;0.50;;;19.80;99.90;;;;;;5090966;28;20676;-67
2022/11/23 12:27:48;;;;;;;1.17;0.70;;;19.70;99.90;;;;;;5075751;28;20534;-67
2022/11/23 12:30:37;;;;;;;0.97;0.57;;;19.70;99.90;;;;;;5075613;28;20170;-67
2022/11/23 12:33:27;;;;;;;1.33;0.60;;;19.70;99.90;;;;;;5075071;28;20183;-67
2022/11/23 12:36:16;;;;;;;2.50;0.80;;;19.70;99.90;;;;;;5035438;28;20181;-68
2022/11/23 12:39:09;;;;;;;2.80;0.90;;;19.60;99.90;;;;;;5035357;28;20665;-67
2022/11/23 12:42:03;;;;;;;0.70;0.60;;;19.50;99.90;;;;;;5051915;28;20263;-67
2022/11/23 12:44:51;;;;;;;4.47;1.20;;;19.60;99.90;;;;;;5090334;28;20681;-68
2022/11/23 12:47:46;;;;;;;0.83;0.70;;;19.50;99.90;;;;;;5075754;28;20172;-67
2022/11/23 12:50:22;;;;;;;1.13;0.77;;;19.30;99.90;;;;;;5075082;28;20168;-67
2022/11/23 12:53:36;;;;;;;5.47;0.83;;;19.00;99.90;;;;;;5075116;28;20175;-67
2022/11/23 12:56:12;;;;;;;1.97;1.00;;;18.90;99.90;;;;;;5015829;28;20193;-67
2022/11/23 12:58:41;;;;;;;3.00;1.10;;;18.80;99.90;;;;;;5050128;28;20272;-66
2022/11/23 13:01:27;;;;;;;2.87;0.90;;;18.70;99.90;;;;;;5038590;28;20180;-67
2022/11/23 13:04:18;;;;;;;3.17;0.87;;;18.70;99.90;;;;;;5074368;28;20291;-68
2022/11/23 13:07:06;;;;;;;6.07;1.20;;;18.70;99.90;;;;;;5074741;28;20528;-71
2022/11/23 13:10:07;;;;;;;3.17;1.00;;;18.70;99.90;;;;;;5075074;28;20183;-72
2022/11/23 13:12:46;;;;;;;2.87;1.20;;;18.60;99.90;;;;;;5074305;28;20194;-73